This is the latest recevied weather packets stored in our database for station/object R6DH-11. If no packets are shown the sender has not sent any weather packets the latest 10 day(s).
| Time | Temp. | Humidity | Pressure | Rain* | Wind** | Luminosity | Snow |
|---|---|---|---|---|---|---|---|
| 1777895195 | 12.22° C | 57% | 1011.3 hPa | - | - | - | - |
| 1777893384 | 12.78° C | 52% | 1011.6 hPa | - | - | - | - |
| 1777891592 | 12.22° C | 51% | 1011.7 hPa | - | - | - | - |
| 1777890691 | 12.22° C | 52% | 1011.8 hPa | - | - | - | - |
| 1777889789 | 12.22° C | 52% | 1011.7 hPa | - | - | - | - |
| 1777887986 | 12.22° C | 52% | 1011.6 hPa | - | - | - | - |
| 1777886182 | 12.22° C | 52% | 1011.6 hPa | - | - | - | - |
| 1777885289 | 12.78° C | 49% | 1011.7 hPa | - | - | - | - |
| 1777884389 | 12.78° C | 50% | 1011.7 hPa | - | - | - | - |
| 1777883484 | 12.78° C | 52% | 1011.8 hPa | - | - | - | - |
| 1777882584 | 12.22° C | 54% | 1011.7 hPa | - | - | - | - |
| 1777881684 | 11.67° C | 57% | 1011.7 hPa | - | - | - | - |
| 1777880784 | 11.67° C | 57% | 1011.8 hPa | - | - | - | - |
| 1777879884 | 11.67° C | 58% | 1011.8 hPa | - | - | - | - |
| 1777878984 | 11.67° C | 60% | 1011.9 hPa | - | - | - | - |
| 1777878084 | 11.11° C | 61% | 1011.9 hPa | - | - | - | - |
| 1777877184 | 10.56° C | 62% | 1011.8 hPa | - | - | - | - |
| 1777876284 | 10° C | 63% | 1011.8 hPa | - | - | - | - |
| 1777875390 | 10° C | 64% | 1011.9 hPa | - | - | - | - |
| 1777874490 | 10° C | 66% | 1011.9 hPa | - | - | - | - |
| 1777871790 | 9.44° C | 68% | 1011.6 hPa | - | - | - | - |
| 1777869078 | 9.44° C | 68% | 1011.6 hPa | - | - | - | - |
| 1777868178 | 9.44° C | 68% | 1011.5 hPa | - | - | - | - |
| 1777867289 | 8.89° C | 69% | 1011.5 hPa | - | - | - | - |
| 1777864581 | 8.89° C | 70% | 1011.4 hPa | - | - | - | - |
* Rain since midnight (hover to see other rain measurements)
** Current wind speed in m/s (hover to see current wind gust speed)